createdAt,value
2018-07-21T00:00:02.924Z,21.2
2018-07-21T00:05:02.499Z,20.8
2018-07-21T00:10:02.982Z,19.2
2018-07-21T00:15:02.377Z,17.7
2018-07-21T00:20:02.865Z,17.7
2018-07-21T00:25:03.233Z,17.5
2018-07-21T00:30:02.620Z,17.7
2018-07-21T00:35:03.151Z,17.7
2018-07-21T00:40:02.621Z,17.7
2018-07-21T00:45:02.950Z,17.7
2018-07-21T00:50:02.362Z,17.7
2018-07-21T00:55:02.774Z,17.7
2018-07-21T01:00:03.151Z,17.7
2018-07-21T01:05:02.508Z,17.7
2018-07-21T01:10:02.936Z,17.7
2018-07-21T01:15:02.398Z,17.5
2018-07-21T01:20:02.799Z,17.5
2018-07-21T01:25:03.114Z,17.5
2018-07-21T01:30:02.581Z,17.2
2018-07-21T01:35:02.925Z,17.3
2018-07-21T01:40:02.378Z,17.5
2018-07-21T01:45:03.143Z,17.5
2018-07-21T01:50:02.539Z,17.3
2018-07-21T01:55:02.956Z,17.7
2018-07-21T02:00:02.375Z,17.7
2018-07-21T02:05:02.901Z,17.5
2018-07-21T02:10:02.388Z,17.7
2018-07-21T02:15:02.833Z,17.7
2018-07-21T02:20:02.305Z,17.7
2018-07-21T02:25:02.743Z,17.5
2018-07-21T02:30:03.149Z,17.7
2018-07-21T02:35:02.548Z,17.7
2018-07-21T02:40:02.950Z,17.5
2018-07-21T02:45:02.353Z,17.7
2018-07-21T02:50:02.809Z,17.7
2018-07-21T02:55:02.270Z,17.5
2018-07-21T03:00:03.239Z,17.5
2018-07-21T03:05:02.748Z,17.5
2018-07-21T03:10:03.289Z,17.5
2018-07-21T03:15:03.239Z,17.7
2018-07-21T03:20:02.684Z,17.7
2018-07-21T03:25:03.179Z,17.7
2018-07-21T03:30:02.624Z,17.7
2018-07-21T03:35:03.040Z,17.7
2018-07-21T03:40:02.498Z,17.7
2018-07-21T03:45:02.933Z,17.7
2018-07-21T03:50:02.327Z,17.7
2018-07-21T03:55:02.815Z,17.5
2018-07-21T04:00:02.413Z,17.3
2018-07-21T04:05:02.842Z,17.3
2018-07-21T04:10:02.321Z,17.3
2018-07-21T04:15:02.661Z,17.1
2018-07-21T04:20:03.105Z,17.0
2018-07-21T04:25:02.620Z,17.0
2018-07-21T04:30:03.026Z,17.0
2018-07-21T04:35:02.434Z,17.2
2018-07-21T04:40:02.951Z,17.2
2018-07-21T04:45:02.358Z,17.2
2018-07-21T04:50:02.712Z,17.2
2018-07-21T04:55:03.094Z,17.3
2018-07-21T05:00:02.530Z,17.3
2018-07-21T05:05:02.947Z,17.1
2018-07-21T05:10:02.472Z,17.2
2018-07-21T05:15:02.928Z,17.2
2018-07-21T05:20:02.416Z,17.3
2018-07-21T05:25:02.264Z,17.3
2018-07-21T05:30:02.705Z,17.7
2018-07-21T05:35:03.113Z,18.1
2018-07-21T05:40:02.627Z,17.7
2018-07-21T05:45:03.125Z,17.3
2018-07-21T05:50:02.793Z,17.2
2018-07-21T05:55:02.317Z,17.2
2018-07-21T06:00:02.733Z,16.7
2018-07-21T06:05:03.359Z,17.5
2018-07-21T06:10:02.753Z,17.2
2018-07-21T06:15:02.313Z,17.8
2018-07-21T06:20:02.761Z,18.1
2018-07-21T06:25:03.174Z,18.1
2018-07-21T06:30:02.794Z,18.1
2018-07-21T06:35:02.293Z,18.5
2018-07-21T06:40:02.829Z,18.6
2018-07-21T06:45:02.285Z,18.8
2018-07-21T06:50:02.759Z,18.8
2018-07-21T06:55:03.111Z,19.2
2018-07-21T07:00:02.487Z,19.7
2018-07-21T07:05:02.996Z,20.0
2018-07-21T07:10:02.457Z,21.0
2018-07-21T07:15:03.223Z,22.7
2018-07-21T07:20:02.685Z,23.2
2018-07-21T07:25:02.256Z,23.2
2018-07-21T07:30:02.660Z,22.7
2018-07-21T07:35:03.105Z,23.0
2018-07-21T07:40:02.701Z,22.7
2018-07-21T07:45:03.157Z,22.7
2018-07-21T07:50:02.548Z,22.5
2018-07-21T07:55:02.937Z,22.7
2018-07-21T08:00:02.314Z,22.6
2018-07-21T08:05:02.771Z,22.7
2018-07-21T08:10:02.260Z,22.7
2018-07-21T08:15:02.711Z,23.3
2018-07-21T08:20:03.189Z,23.7
2018-07-21T08:25:02.731Z,24.5
2018-07-21T08:30:03.257Z,25.0
2018-07-21T08:35:02.680Z,24.2
2018-07-21T08:40:03.148Z,25.6
2018-07-21T08:45:02.598Z,26.0
2018-07-21T08:50:03.007Z,26.1
2018-07-21T08:55:02.510Z,26.1
2018-07-21T09:00:02.907Z,26.1
2018-07-21T09:05:02.303Z,26.7
2018-07-21T09:10:02.840Z,27.1
2018-07-21T09:15:02.236Z,28.0
2018-07-21T09:20:02.741Z,27.2
2018-07-21T09:25:03.152Z,28.1
2018-07-21T09:30:02.648Z,28.1
2018-07-21T09:35:03.073Z,28.7
2018-07-21T09:40:02.563Z,28.8
2018-07-21T09:45:03.083Z,28.2
2018-07-21T09:50:02.500Z,28.2
2018-07-21T09:55:02.846Z,30.1
2018-07-21T10:00:03.373Z,30.6
2018-07-21T10:05:02.991Z,30.5
2018-07-21T10:10:02.550Z,31.8
2018-07-21T10:15:02.917Z,30.0
2018-07-21T10:20:02.378Z,29.7
2018-07-21T10:25:02.860Z,29.6
2018-07-21T10:30:02.337Z,29.5
2018-07-21T10:35:02.716Z,30.2
2018-07-21T10:40:03.144Z,30.3
2018-07-21T10:45:02.493Z,30.3
2018-07-21T10:50:02.994Z,28.6
2018-07-21T10:55:02.404Z,29.7
2018-07-21T11:00:02.816Z,30.7
2018-07-21T11:05:02.272Z,30.2
2018-07-21T11:10:02.738Z,30.3
2018-07-21T11:15:03.219Z,31.8
2018-07-21T11:20:02.896Z,30.2
2018-07-21T11:25:02.435Z,30.7
2018-07-21T11:30:02.799Z,31.7
2018-07-21T11:35:02.409Z,31.3
2018-07-21T11:40:02.937Z,32.7
2018-07-21T11:45:02.331Z,30.6
2018-07-21T11:50:02.826Z,29.7
2018-07-21T11:55:03.272Z,30.2
2018-07-21T12:00:02.716Z,32.7
2018-07-21T12:05:03.172Z,31.8
2018-07-21T12:10:02.630Z,30.7
2018-07-21T12:15:03.018Z,31.8
2018-07-21T12:20:02.466Z,30.7
2018-07-21T12:25:02.937Z,31.7
2018-07-21T12:30:02.384Z,31.6
2018-07-21T12:35:02.818Z,31.3
2018-07-21T12:40:03.265Z,33.2
2018-07-21T12:45:02.905Z,32.7
2018-07-21T12:50:02.527Z,32.4
2018-07-21T12:55:02.907Z,32.0
2018-07-21T13:00:02.293Z,30.2
2018-07-21T13:05:02.713Z,30.2
2018-07-21T13:10:02.408Z,32.4
2018-07-21T13:15:02.856Z,31.6
2018-07-21T13:20:03.209Z,31.7
2018-07-21T13:25:02.631Z,30.2
2018-07-21T13:30:03.244Z,31.2
2018-07-21T13:35:02.716Z,31.7
2018-07-21T13:40:03.187Z,31.7
2018-07-21T13:45:02.730Z,33.0
2018-07-21T13:50:03.200Z,32.5
2018-07-21T13:55:02.695Z,31.7
2018-07-21T14:00:02.625Z,31.6
2018-07-21T14:05:03.110Z,33.0
2018-07-21T14:10:02.613Z,32.5
2018-07-21T14:15:02.655Z,32.5
2018-07-21T14:20:03.141Z,32.4
2018-07-21T14:25:02.675Z,31.6
2018-07-21T14:30:03.020Z,32.4
2018-07-21T14:35:03.013Z,32.9
2018-07-21T14:40:02.804Z,33.5
2018-07-21T14:45:03.219Z,31.0
2018-07-21T14:50:02.604Z,29.0
2018-07-21T14:55:03.171Z,28.8
2018-07-21T15:00:02.340Z,28.6
2018-07-21T15:05:02.789Z,28.5
2018-07-21T15:10:02.323Z,28.5
2018-07-21T15:15:02.778Z,28.7
2018-07-21T15:20:02.314Z,29.2
2018-07-21T15:25:02.691Z,29.2
2018-07-21T15:30:03.060Z,30.0
2018-07-21T15:35:02.532Z,31.7
2018-07-21T15:40:02.962Z,31.8
2018-07-21T15:45:02.321Z,31.7
2018-07-21T15:50:02.707Z,30.6
2018-07-21T15:55:03.060Z,29.7
2018-07-21T16:00:02.499Z,30.1
2018-07-21T16:05:03.059Z,31.8
2018-07-21T16:10:02.478Z,31.7
2018-07-21T16:15:03.870Z,31.0
2018-07-21T16:20:02.406Z,31.3
2018-07-21T16:25:02.865Z,31.7
2018-07-21T16:30:03.235Z,31.2
2018-07-21T16:35:02.697Z,31.0
2018-07-21T16:40:03.170Z,31.2
2018-07-21T16:45:02.640Z,31.7
2018-07-21T16:50:02.985Z,31.8
2018-07-21T16:55:02.421Z,30.6
2018-07-21T17:00:02.981Z,30.8
2018-07-21T17:05:02.787Z,30.8
2018-07-21T17:10:02.281Z,30.8
2018-07-21T17:15:02.747Z,31.0
2018-07-21T17:20:03.108Z,30.5
2018-07-21T17:25:02.520Z,30.0
2018-07-21T17:30:02.912Z,30.3
2018-07-21T17:35:02.892Z,29.7
2018-07-21T17:40:02.365Z,29.2
2018-07-21T17:45:02.718Z,29.7
2018-07-21T17:50:03.148Z,29.6
2018-07-21T17:55:02.600Z,29.2
2018-07-21T18:00:02.994Z,29.2
2018-07-21T18:05:02.518Z,29.0
2018-07-21T18:10:03.004Z,28.7
2018-07-21T18:15:02.471Z,28.3
2018-07-21T18:20:02.934Z,28.5
2018-07-21T18:25:02.599Z,27.8
2018-07-21T18:30:03.085Z,27.3
2018-07-21T18:35:02.495Z,27.3
2018-07-21T18:40:02.959Z,27.3
2018-07-21T18:45:02.780Z,27.1
2018-07-21T18:50:03.204Z,26.6
2018-07-21T18:55:02.726Z,26.5
2018-07-21T19:00:03.127Z,26.2
2018-07-21T19:05:02.625Z,26.0
2018-07-21T19:10:03.102Z,25.7
2018-07-21T19:15:02.519Z,25.6
2018-07-21T19:20:02.904Z,25.2
2018-07-21T19:25:02.271Z,25.2
2018-07-21T19:30:02.590Z,24.8
2018-07-21T19:35:02.968Z,24.6
2018-07-21T19:40:02.452Z,24.5
2018-07-21T19:45:02.415Z,24.2
2018-07-21T19:50:02.834Z,24.0
2018-07-21T19:55:03.249Z,23.7
2018-07-21T20:00:02.985Z,23.6
2018-07-21T20:05:02.503Z,23.3
2018-07-21T20:10:02.956Z,23.2
2018-07-21T20:15:02.408Z,23.2
2018-07-21T20:20:02.815Z,23.1
2018-07-21T20:25:03.181Z,22.7
2018-07-21T20:30:02.674Z,22.7
2018-07-21T20:35:03.015Z,22.6
2018-07-21T20:40:02.546Z,22.5
2018-07-21T20:45:02.875Z,22.3
2018-07-21T20:50:02.317Z,22.3
2018-07-21T20:55:02.721Z,22.1
2018-07-21T21:00:03.083Z,22.1
2018-07-21T21:05:02.762Z,21.8
2018-07-21T21:10:02.262Z,21.8
2018-07-21T21:15:02.672Z,21.7
2018-07-21T21:20:03.198Z,21.6
2018-07-21T21:25:02.632Z,21.3
2018-07-21T21:30:03.327Z,21.3
2018-07-21T21:35:02.755Z,21.2
2018-07-21T21:40:03.212Z,21.2
2018-07-21T21:45:02.694Z,21.0
2018-07-21T21:50:03.078Z,21.0
2018-07-21T21:55:02.457Z,21.0
2018-07-21T22:00:02.845Z,20.8
2018-07-21T22:05:03.237Z,20.7
2018-07-21T22:10:02.677Z,20.7
2018-07-21T22:15:03.090Z,20.6
2018-07-21T22:20:02.542Z,20.6
2018-07-21T22:25:02.991Z,20.3
2018-07-21T22:30:02.477Z,20.3
2018-07-21T22:35:02.981Z,20.2
2018-07-21T22:40:02.441Z,20.0
2018-07-21T22:45:02.802Z,19.7
2018-07-21T22:50:02.256Z,19.7
2018-07-21T22:55:02.729Z,19.5
2018-07-21T23:00:03.200Z,19.7
2018-07-21T23:05:02.586Z,19.5
2018-07-21T23:10:03.191Z,19.5
2018-07-21T23:15:02.621Z,19.2
2018-07-21T23:20:03.024Z,19.2
2018-07-21T23:25:02.377Z,19.0
2018-07-21T23:30:02.771Z,18.8
2018-07-21T23:35:03.215Z,18.8
2018-07-21T23:40:02.633Z,18.7
2018-07-21T23:45:02.984Z,18.6
2018-07-21T23:50:02.391Z,18.5
2018-07-21T23:55:02.769Z,18.5
